createdAt,value
2023-04-17T00:00:07.271Z,26.72
2023-04-17T00:01:07.333Z,26.73
2023-04-17T00:02:07.469Z,26.70
2023-04-17T00:03:07.571Z,26.73
2023-04-17T00:04:07.536Z,26.75
2023-04-17T00:05:07.587Z,26.73
2023-04-17T00:06:07.605Z,26.75
2023-04-17T00:07:07.609Z,26.73
2023-04-17T00:08:07.682Z,26.72
2023-04-17T00:09:07.707Z,26.72
2023-04-17T00:10:07.780Z,26.75
2023-04-17T00:11:09.117Z,26.75
2023-04-17T00:12:07.861Z,26.76
2023-04-17T00:13:07.869Z,26.75
2023-04-17T00:14:07.911Z,26.76
2023-04-17T00:15:07.964Z,26.76
2023-04-17T00:16:08.039Z,26.76
2023-04-17T00:17:08.095Z,26.78
2023-04-17T00:18:08.053Z,26.79
2023-04-17T00:19:08.117Z,26.75
2023-04-17T00:20:08.179Z,26.78
2023-04-17T00:21:08.251Z,26.79
2023-04-17T00:22:08.267Z,26.79
2023-04-17T00:23:08.279Z,26.82
2023-04-17T00:24:08.331Z,26.82
2023-04-17T00:25:08.369Z,26.83
2023-04-17T00:26:08.404Z,26.83
2023-04-17T00:27:08.448Z,26.85
2023-04-17T00:28:08.489Z,26.85
2023-04-17T00:29:08.580Z,26.86
2023-04-17T00:30:08.557Z,26.89
2023-04-17T00:31:08.622Z,26.89
2023-04-17T00:32:08.870Z,26.90
2023-04-17T00:33:08.747Z,26.92
2023-04-17T00:34:08.753Z,26.92
2023-04-17T00:35:08.827Z,26.93
2023-04-17T00:36:08.875Z,26.94
2023-04-17T00:37:08.930Z,26.96
2023-04-17T00:38:09.029Z,27.00
2023-04-17T00:39:09.154Z,27.00
2023-04-17T00:40:09.106Z,27.00
2023-04-17T00:41:09.188Z,27.01
2023-04-17T00:42:09.284Z,27.03
2023-04-17T00:43:09.288Z,27.04
2023-04-17T00:44:09.349Z,27.07
2023-04-17T00:45:09.379Z,27.10
2023-04-17T00:46:09.443Z,27.09
2023-04-17T00:47:09.475Z,27.09
2023-04-17T00:48:09.567Z,27.11
2023-04-17T00:49:09.666Z,27.13
2023-04-17T00:50:09.615Z,27.15
2023-04-17T00:51:09.675Z,27.15
2023-04-17T00:52:10.259Z,27.17
2023-04-17T00:53:09.770Z,27.17
2023-04-17T00:54:09.841Z,27.18
2023-04-17T00:55:09.915Z,27.21
2023-04-17T00:56:09.973Z,27.21
2023-04-17T00:57:10.017Z,27.23
2023-04-17T00:58:10.034Z,27.21
2023-04-17T00:59:10.336Z,27.27
2023-04-17T01:00:10.094Z,27.26
2023-04-17T01:01:10.254Z,27.30
2023-04-17T01:02:10.309Z,27.27
2023-04-17T01:03:10.400Z,27.30
2023-04-17T01:04:10.485Z,27.30
2023-04-17T01:05:10.317Z,27.33
2023-04-17T01:06:10.381Z,27.31
2023-04-17T01:07:10.420Z,27.34
2023-04-17T01:08:10.470Z,27.33
2023-04-17T01:09:10.747Z,27.34
2023-04-17T01:10:10.522Z,27.34
2023-04-17T01:11:10.574Z,27.37
2023-04-17T01:12:10.610Z,27.38
2023-04-17T01:13:10.676Z,27.38
2023-04-17T01:14:10.740Z,27.40
2023-04-17T01:15:10.847Z,27.38
2023-04-17T01:16:10.778Z,27.40
2023-04-17T01:17:10.942Z,27.40
2023-04-17T01:18:10.848Z,27.41
2023-04-17T01:19:10.981Z,27.43
2023-04-17T01:20:11.039Z,27.45
2023-04-17T01:21:10.988Z,27.44
2023-04-17T01:22:10.990Z,27.44
2023-04-17T01:23:11.046Z,27.45
2023-04-17T01:24:11.083Z,27.47
2023-04-17T01:25:11.131Z,27.47
2023-04-17T01:26:11.165Z,27.48
2023-04-17T01:27:11.210Z,27.48
2023-04-17T01:28:11.231Z,27.48
2023-04-17T01:29:11.586Z,27.51
2023-04-17T01:30:11.318Z,27.50
2023-04-17T01:31:11.363Z,27.50
2023-04-17T01:32:11.359Z,27.52
2023-04-17T01:33:11.420Z,27.51
2023-04-17T01:34:11.424Z,27.54
2023-04-17T01:35:11.502Z,27.54
2023-04-17T01:36:11.523Z,27.54
2023-04-17T01:37:11.541Z,27.54
2023-04-17T01:38:11.607Z,27.54
2023-04-17T01:39:11.740Z,27.54
2023-04-17T01:40:11.625Z,27.57
2023-04-17T01:41:11.645Z,27.57
2023-04-17T01:42:11.653Z,27.57
2023-04-17T01:43:11.728Z,27.58
2023-04-17T01:44:11.698Z,27.60
2023-04-17T01:45:11.744Z,27.60
2023-04-17T01:46:11.795Z,27.61
2023-04-17T01:47:11.787Z,27.61
2023-04-17T01:48:11.876Z,27.58
2023-04-17T01:49:11.996Z,27.60
2023-04-17T01:50:11.852Z,27.64
2023-04-17T01:51:11.930Z,27.62
2023-04-17T01:52:11.920Z,27.61
2023-04-17T01:53:11.975Z,27.64
2023-04-17T01:54:11.989Z,27.64
2023-04-17T01:55:12.019Z,27.65
2023-04-17T01:56:12.068Z,27.64
2023-04-17T01:57:12.062Z,27.68
2023-04-17T01:58:12.098Z,27.68
2023-04-17T01:59:12.356Z,27.65
2023-04-17T02:00:12.157Z,27.66
2023-04-17T02:01:12.200Z,27.69
2023-04-17T02:02:12.307Z,27.69
2023-04-17T02:03:12.382Z,27.66
2023-04-17T02:04:12.361Z,27.68
2023-04-17T02:05:12.288Z,27.69
2023-04-17T02:06:12.300Z,27.69
2023-04-17T02:07:12.332Z,27.69
2023-04-17T02:08:12.348Z,27.69
2023-04-17T02:09:12.627Z,27.71
2023-04-17T02:10:12.387Z,27.69
2023-04-17T02:11:12.398Z,27.74
2023-04-17T02:12:12.435Z,27.71
2023-04-17T02:13:12.485Z,27.72
2023-04-17T02:14:12.503Z,27.74
2023-04-17T02:15:12.504Z,27.75
2023-04-17T02:16:12.582Z,27.74
2023-04-17T02:17:12.492Z,27.71
2023-04-17T02:18:12.549Z,27.77
2023-04-17T02:19:12.734Z,27.75
2023-04-17T02:20:12.604Z,27.74
2023-04-17T02:21:12.584Z,27.75
2023-04-17T02:22:12.667Z,27.75
2023-04-17T02:23:12.641Z,27.77
2023-04-17T02:24:12.645Z,27.75
2023-04-17T02:25:12.706Z,27.77
2023-04-17T02:26:12.713Z,27.75
2023-04-17T02:27:12.724Z,27.77
2023-04-17T02:28:12.762Z,27.78
2023-04-17T02:29:12.917Z,27.78
2023-04-17T02:30:13.762Z,27.81
2023-04-17T02:31:12.781Z,27.80
2023-04-17T02:32:12.793Z,27.78
2023-04-17T02:33:12.834Z,27.78
2023-04-17T02:34:12.826Z,27.80
2023-04-17T02:35:12.877Z,27.81
2023-04-17T02:36:12.890Z,27.82
2023-04-17T02:37:12.891Z,27.81
2023-04-17T02:38:12.900Z,27.81
2023-04-17T02:39:13.110Z,27.84
2023-04-17T02:40:12.937Z,27.81
2023-04-17T02:41:12.948Z,27.85
2023-04-17T02:42:13.015Z,27.84
2023-04-17T02:43:12.995Z,27.84
2023-04-17T02:44:12.991Z,27.84
2023-04-17T02:45:13.011Z,27.84
2023-04-17T02:46:13.026Z,27.85
2023-04-17T02:47:13.059Z,27.84
2023-04-17T02:48:13.085Z,27.82
2023-04-17T02:49:13.181Z,27.87
2023-04-17T02:50:13.104Z,27.88
2023-04-17T02:51:13.111Z,27.87
2023-04-17T02:52:13.122Z,27.88
2023-04-17T02:53:13.171Z,27.85
2023-04-17T02:54:13.173Z,27.87
2023-04-17T02:55:13.202Z,27.88
2023-04-17T02:56:13.183Z,27.85
2023-04-17T02:57:13.216Z,27.87
2023-04-17T02:58:13.248Z,27.88
2023-04-17T02:59:13.326Z,27.88
2023-04-17T03:00:13.249Z,27.91
2023-04-17T03:01:13.277Z,27.89
2023-04-17T03:02:13.351Z,27.89
2023-04-17T03:03:13.570Z,27.91
2023-04-17T03:04:13.416Z,27.88
2023-04-17T03:05:13.345Z,27.89
2023-04-17T03:06:13.371Z,27.92
2023-04-17T03:07:13.391Z,27.92
2023-04-17T03:08:13.406Z,27.92
2023-04-17T03:09:13.571Z,27.91
2023-04-17T03:10:13.453Z,27.91
2023-04-17T03:11:13.458Z,27.92
2023-04-17T03:12:13.493Z,27.92
2023-04-17T03:13:13.466Z,27.92
2023-04-17T03:14:13.504Z,27.92
2023-04-17T03:15:13.518Z,27.92
2023-04-17T03:16:13.592Z,27.92
2023-04-17T03:17:13.554Z,27.95
2023-04-17T03:18:13.570Z,27.92
2023-04-17T03:19:13.658Z,27.96
2023-04-17T03:20:13.622Z,27.94
2023-04-17T03:21:13.647Z,27.96
2023-04-17T03:22:13.670Z,27.96
2023-04-17T03:23:13.712Z,27.96
2023-04-17T03:24:13.702Z,27.94
2023-04-17T03:25:13.703Z,27.96
2023-04-17T03:26:13.739Z,27.95
2023-04-17T03:27:13.737Z,27.94
2023-04-17T03:28:13.756Z,27.95
2023-04-17T03:29:13.977Z,27.98
2023-04-17T03:30:13.757Z,27.98
2023-04-17T03:31:13.799Z,27.98
2023-04-17T03:32:13.938Z,27.98
2023-04-17T03:33:13.823Z,27.98
2023-04-17T03:34:13.856Z,27.98
2023-04-17T03:35:13.843Z,28.01
2023-04-17T03:36:13.850Z,27.99
2023-04-17T03:37:13.850Z,27.98
2023-04-17T03:38:13.940Z,27.98
2023-04-17T03:39:14.046Z,27.99
2023-04-17T03:40:13.940Z,28.01
2023-04-17T03:41:13.945Z,28.01
2023-04-17T03:42:13.970Z,28.01
2023-04-17T03:43:13.984Z,28.01
2023-04-17T03:44:14.024Z,28.02
2023-04-17T03:45:14.041Z,28.02
2023-04-17T03:46:14.079Z,28.02
2023-04-17T03:47:14.051Z,27.99
2023-04-17T03:48:14.046Z,28.05
2023-04-17T03:49:14.260Z,28.03
2023-04-17T03:50:14.115Z,28.03
2023-04-17T03:51:14.078Z,28.03
2023-04-17T03:52:14.121Z,28.03
2023-04-17T03:53:14.128Z,28.03
2023-04-17T03:54:14.128Z,28.05
2023-04-17T03:55:14.137Z,28.05
2023-04-17T03:56:14.171Z,28.05
2023-04-17T03:57:14.145Z,28.03
2023-04-17T03:58:14.164Z,28.05
2023-04-17T03:59:14.219Z,28.05
2023-04-17T04:00:14.182Z,28.05
2023-04-17T04:01:14.169Z,28.05
2023-04-17T04:02:14.265Z,28.08
2023-04-17T04:03:14.430Z,28.05
2023-04-17T04:04:14.277Z,28.06
2023-04-17T04:05:14.390Z,28.08
2023-04-17T04:06:14.180Z,28.06
2023-04-17T04:07:14.247Z,28.06
2023-04-17T04:08:14.233Z,28.08
2023-04-17T04:09:14.215Z,28.06
2023-04-17T04:10:14.254Z,28.08
2023-04-17T04:11:14.250Z,28.08
2023-04-17T04:12:14.276Z,28.08
2023-04-17T04:13:14.286Z,28.11
2023-04-17T04:14:14.296Z,28.08
2023-04-17T04:15:14.259Z,28.08
2023-04-17T04:16:14.421Z,28.08
2023-04-17T04:17:14.320Z,28.11
2023-04-17T04:18:14.336Z,28.09
2023-04-17T04:19:14.497Z,28.09
2023-04-17T04:20:14.390Z,28.09
2023-04-17T04:21:14.403Z,28.11
2023-04-17T04:22:14.421Z,28.11
2023-04-17T04:23:14.398Z,28.11
2023-04-17T04:24:14.453Z,28.13
2023-04-17T04:25:14.380Z,28.12
2023-04-17T04:26:14.452Z,28.11
2023-04-17T04:27:15.967Z,28.12
2023-04-17T04:28:14.455Z,28.13
2023-04-17T04:29:14.670Z,28.13
2023-04-17T04:30:14.435Z,28.13
2023-04-17T04:31:14.420Z,28.13
2023-04-17T04:32:14.395Z,28.12
2023-04-17T04:33:14.367Z,28.12
2023-04-17T04:34:14.376Z,28.13
2023-04-17T04:35:14.317Z,28.12
2023-04-17T04:36:14.296Z,28.15
2023-04-17T04:37:14.291Z,28.15
2023-04-17T04:38:14.306Z,28.12
2023-04-17T04:39:14.315Z,28.13
2023-04-17T04:40:14.267Z,28.11
2023-04-17T04:41:14.246Z,28.15
2023-04-17T04:42:14.223Z,28.12
2023-04-17T04:43:14.246Z,28.12
2023-04-17T04:44:14.184Z,28.12
2023-04-17T04:45:14.179Z,28.15
2023-04-17T04:46:14.152Z,28.12
2023-04-17T04:47:14.152Z,28.13
2023-04-17T04:48:14.129Z,28.12
2023-04-17T04:49:14.141Z,28.12
2023-04-17T04:50:14.150Z,28.13
2023-04-17T04:51:14.142Z,28.11
2023-04-17T04:52:14.083Z,28.12
2023-04-17T04:53:14.094Z,28.12
2023-04-17T04:54:14.100Z,28.12
2023-04-17T04:55:14.083Z,28.09
2023-04-17T04:56:14.080Z,28.11
2023-04-17T04:57:14.070Z,28.11
2023-04-17T04:58:14.025Z,28.11
2023-04-17T04:59:14.031Z,28.13
2023-04-17T05:00:14.038Z,28.11
2023-04-17T05:01:21.142Z,28.12
2023-04-17T05:02:14.118Z,28.11
2023-04-17T05:03:14.207Z,28.13
2023-04-17T05:04:14.165Z,28.12
2023-04-17T05:05:13.993Z,28.09
2023-04-17T05:06:14.016Z,28.12
2023-04-17T05:07:13.987Z,28.09
2023-04-17T05:08:13.999Z,28.11
2023-04-17T05:09:16.640Z,28.09
2023-04-17T05:10:13.997Z,28.09
2023-04-17T05:11:13.957Z,28.08
2023-04-17T05:12:13.934Z,28.06
2023-04-17T05:13:13.952Z,28.11
2023-04-17T05:14:13.905Z,28.09
2023-04-17T05:15:13.904Z,28.08
2023-04-17T05:16:13.953Z,28.06
2023-04-17T05:17:13.879Z,28.06
2023-04-17T05:18:13.908Z,28.06
2023-04-17T05:19:14.062Z,28.06
2023-04-17T05:20:13.905Z,28.03
2023-04-17T05:21:13.905Z,28.06
2023-04-17T05:22:13.864Z,28.08
2023-04-17T05:23:13.834Z,28.06
2023-04-17T05:24:13.815Z,28.05
2023-04-17T05:25:13.809Z,28.05
2023-04-17T05:26:13.810Z,28.03
2023-04-17T05:27:13.784Z,28.03
2023-04-17T05:28:15.545Z,28.05
2023-04-17T05:29:13.884Z,28.05
2023-04-17T05:30:13.756Z,28.02
2023-04-17T05:31:13.793Z,28.03
2023-04-17T05:32:13.755Z,27.98
2023-04-17T05:33:13.756Z,27.98
2023-04-17T05:34:14.001Z,27.99
2023-04-17T05:35:13.747Z,27.98
2023-04-17T05:36:13.715Z,27.94
2023-04-17T05:37:13.797Z,27.91
2023-04-17T05:38:13.721Z,27.88
2023-04-17T05:39:13.921Z,27.92
2023-04-17T05:40:13.732Z,27.88
2023-04-17T05:41:13.937Z,27.84
2023-04-17T05:42:13.672Z,27.84
2023-04-17T05:43:13.639Z,27.81
2023-04-17T05:44:13.860Z,27.77
2023-04-17T05:45:13.641Z,27.78
2023-04-17T05:46:20.719Z,27.78
2023-04-17T05:47:13.667Z,27.75
2023-04-17T05:48:13.665Z,27.78
2023-04-17T05:49:13.791Z,27.78
2023-04-17T05:50:13.628Z,27.78
2023-04-17T05:51:13.639Z,27.77
2023-04-17T05:52:13.615Z,27.78
2023-04-17T05:53:13.594Z,27.78
2023-04-17T05:54:13.663Z,27.80
2023-04-17T05:55:13.621Z,27.82
2023-04-17T05:56:13.642Z,27.81
2023-04-17T05:57:13.636Z,27.82
2023-04-17T05:59:13.855Z,27.80
2023-04-17T06:00:13.592Z,27.82
2023-04-17T06:01:14.387Z,27.85
2023-04-17T06:02:14.366Z,27.85
2023-04-17T06:03:13.817Z,27.85
2023-04-17T06:04:14.528Z,27.85
2023-04-17T06:05:13.734Z,27.84
2023-04-17T06:06:13.538Z,27.87
2023-04-17T06:07:13.533Z,27.87
2023-04-17T06:08:13.528Z,27.88
2023-04-17T06:09:13.684Z,27.91
2023-04-17T06:10:13.503Z,27.94
2023-04-17T06:11:13.523Z,27.95
2023-04-17T06:12:13.481Z,27.96
2023-04-17T06:13:13.493Z,27.98
2023-04-17T06:14:13.487Z,27.98
2023-04-17T06:15:13.465Z,27.98
2023-04-17T06:16:13.423Z,28.03
2023-04-17T06:17:13.545Z,28.03
2023-04-17T06:18:13.450Z,28.05
2023-04-17T06:19:14.164Z,28.05
2023-04-17T06:20:13.408Z,28.09
2023-04-17T06:21:13.368Z,28.09
2023-04-17T06:22:13.369Z,28.09
2023-04-17T06:23:13.404Z,28.09
2023-04-17T06:24:13.390Z,28.06
2023-04-17T06:25:13.353Z,28.08
2023-04-17T06:26:13.376Z,28.06
2023-04-17T06:27:13.340Z,28.06
2023-04-17T06:28:13.330Z,28.08
2023-04-17T06:29:13.444Z,28.11
2023-04-17T06:30:13.358Z,28.08
2023-04-17T06:31:13.340Z,28.13
2023-04-17T06:32:13.315Z,28.09
2023-04-17T06:33:13.325Z,28.18
2023-04-17T06:34:13.467Z,28.18
2023-04-17T06:35:13.284Z,28.16
2023-04-17T06:36:13.269Z,28.20
2023-04-17T06:37:13.282Z,28.19
2023-04-17T06:38:13.247Z,28.18
2023-04-17T06:39:13.510Z,28.20
2023-04-17T06:40:13.458Z,28.12
2023-04-17T06:41:13.223Z,28.09
2023-04-17T06:42:13.238Z,28.03
2023-04-17T06:43:13.258Z,28.02
2023-04-17T06:44:13.282Z,27.92
2023-04-17T06:45:13.379Z,27.89
2023-04-17T06:46:13.546Z,27.81
2023-04-17T06:47:13.479Z,27.80
2023-04-17T06:48:13.526Z,27.77
2023-04-17T06:49:13.871Z,27.75
2023-04-17T06:50:13.641Z,27.69
2023-04-17T06:51:13.649Z,27.75
2023-04-17T06:52:13.685Z,27.74
2023-04-17T06:53:13.741Z,27.74
2023-04-17T06:54:13.791Z,27.72
2023-04-17T06:55:13.890Z,27.71
2023-04-17T06:56:13.914Z,27.68
2023-04-17T06:57:13.996Z,27.64
2023-04-17T06:58:14.030Z,27.62
2023-04-17T06:59:14.230Z,27.62
2023-04-17T07:00:14.173Z,27.61
2023-04-17T07:01:14.212Z,27.61
2023-04-17T07:02:14.408Z,27.55
2023-04-17T07:03:14.401Z,27.50
2023-04-17T07:04:14.497Z,27.45
2023-04-17T07:05:14.390Z,27.33
2023-04-17T07:06:14.386Z,27.29
2023-04-17T07:07:14.413Z,27.21
2023-04-17T07:08:14.475Z,27.17
2023-04-17T07:09:14.719Z,27.10
2023-04-17T07:10:14.944Z,27.07
2023-04-17T07:11:14.533Z,27.04
2023-04-17T07:12:14.585Z,27.01
2023-04-17T07:13:14.615Z,27.04
2023-04-17T07:14:14.629Z,27.00
2023-04-17T07:15:14.718Z,26.99
2023-04-17T07:16:14.730Z,26.99
2023-04-17T07:17:14.775Z,26.99
2023-04-17T07:18:14.817Z,27.01
2023-04-17T07:19:14.930Z,27.04
2023-04-17T07:20:15.016Z,27.03
2023-04-17T07:21:14.889Z,27.07
2023-04-17T07:22:14.891Z,27.09
2023-04-17T07:23:14.976Z,27.09
2023-04-17T07:24:14.973Z,27.09
2023-04-17T07:25:14.984Z,27.13
2023-04-17T07:26:15.035Z,27.15
2023-04-17T07:27:15.074Z,27.14
2023-04-17T07:28:15.075Z,27.20
2023-04-17T07:29:15.145Z,27.21
2023-04-17T07:30:15.185Z,27.23
2023-04-17T07:31:15.222Z,27.27
2023-04-17T07:32:15.270Z,27.24
2023-04-17T07:33:15.354Z,27.26
2023-04-17T07:34:15.473Z,27.27
2023-04-17T07:35:15.935Z,27.26
2023-04-17T07:36:15.519Z,27.24
2023-04-17T07:37:15.538Z,27.26
2023-04-17T07:38:15.630Z,27.27
2023-04-17T07:39:15.685Z,27.26
2023-04-17T07:40:15.742Z,27.27
2023-04-17T07:41:15.764Z,27.30
2023-04-17T07:42:15.862Z,27.33
2023-04-17T07:43:15.890Z,27.33
2023-04-17T07:44:15.964Z,27.33
2023-04-17T07:45:16.102Z,27.34
2023-04-17T07:46:16.206Z,27.37
2023-04-17T07:47:16.215Z,27.41
2023-04-17T07:48:16.194Z,27.41
2023-04-17T07:49:16.541Z,27.41
2023-04-17T07:50:16.325Z,27.44
2023-04-17T07:51:16.325Z,27.45
2023-04-17T07:52:16.403Z,27.45
2023-04-17T07:53:16.430Z,27.50
2023-04-17T07:54:16.509Z,27.52
2023-04-17T07:55:16.660Z,27.54
2023-04-17T07:56:16.673Z,27.54
2023-04-17T07:57:16.678Z,27.54
2023-04-17T07:58:16.704Z,27.55
2023-04-17T07:59:16.802Z,27.62
2023-04-17T08:00:16.854Z,27.62
2023-04-17T08:01:16.867Z,27.66
2023-04-17T08:02:17.036Z,27.68
2023-04-17T08:03:17.254Z,27.69
2023-04-17T08:04:17.110Z,27.75
2023-04-17T08:05:17.085Z,27.77
2023-04-17T08:06:17.101Z,27.80
2023-04-17T08:07:17.108Z,27.85
2023-04-17T08:08:17.933Z,27.87
2023-04-17T08:09:17.110Z,27.92
2023-04-17T08:10:17.179Z,27.95
2023-04-17T08:11:17.235Z,27.98
2023-04-17T08:12:17.253Z,27.96
2023-04-17T08:13:17.207Z,28.01
2023-04-17T08:14:17.266Z,28.05
2023-04-17T08:15:17.850Z,28.05
2023-04-17T08:16:17.289Z,28.09
2023-04-17T08:17:17.326Z,28.12
2023-04-17T08:18:17.336Z,28.13
2023-04-17T08:19:17.361Z,28.16
2023-04-17T08:20:17.347Z,28.20
2023-04-17T08:21:17.458Z,28.22
2023-04-17T08:22:17.416Z,28.22
2023-04-17T08:23:18.446Z,28.23
2023-04-17T08:24:19.448Z,28.23
2023-04-17T08:25:17.650Z,28.23
2023-04-17T08:26:17.644Z,28.26
2023-04-17T08:27:17.644Z,28.26
2023-04-17T08:28:17.653Z,28.27
2023-04-17T08:29:17.702Z,28.29
2023-04-17T08:30:19.206Z,28.27
2023-04-17T08:31:17.737Z,28.32
2023-04-17T08:32:17.773Z,28.27
2023-04-17T08:33:17.787Z,28.12
2023-04-17T08:34:17.832Z,27.94
2023-04-17T08:35:17.943Z,27.69
2023-04-17T08:36:17.923Z,27.38
2023-04-17T08:37:17.969Z,27.15
2023-04-17T08:38:18.055Z,26.90
2023-04-17T08:39:18.108Z,26.70
2023-04-17T08:40:18.216Z,26.48
2023-04-17T08:41:18.290Z,26.31
2023-04-17T08:42:19.022Z,26.15
2023-04-17T08:43:18.443Z,25.97
2023-04-17T08:44:18.482Z,25.85
2023-04-17T08:45:19.509Z,25.77
2023-04-17T08:46:18.627Z,25.68
2023-04-17T08:47:18.745Z,25.60
2023-04-17T08:48:19.483Z,25.56
2023-04-17T08:49:18.779Z,25.46
2023-04-17T08:50:18.859Z,25.44
2023-04-17T08:51:18.972Z,25.39
2023-04-17T08:52:18.947Z,25.39
2023-04-17T08:53:19.002Z,25.37
2023-04-17T08:54:19.108Z,25.36
2023-04-17T08:55:19.175Z,25.40
2023-04-17T08:56:19.210Z,25.47
2023-04-17T08:57:19.952Z,25.47
2023-04-17T08:58:19.360Z,25.46
2023-04-17T08:59:19.431Z,25.44
2023-04-17T09:00:19.965Z,25.46
2023-04-17T09:01:19.621Z,25.43
2023-04-17T09:02:19.806Z,25.46
2023-04-17T09:03:19.869Z,25.49
2023-04-17T09:04:20.799Z,25.46
2023-04-17T09:05:20.535Z,25.49
2023-04-17T09:06:20.521Z,25.46
2023-04-17T09:07:20.182Z,25.47
2023-04-17T09:08:23.075Z,25.47
2023-04-17T09:09:20.137Z,25.46
2023-04-17T09:10:20.152Z,25.49
2023-04-17T09:11:20.182Z,25.47
2023-04-17T09:12:20.168Z,25.50
2023-04-17T09:13:20.203Z,25.56
2023-04-17T09:14:20.940Z,25.57
2023-04-17T09:15:20.493Z,25.58
2023-04-17T09:16:20.408Z,25.67
2023-04-17T09:17:20.363Z,25.70
2023-04-17T09:18:20.408Z,25.76
2023-04-17T09:19:20.358Z,25.81
2023-04-17T09:20:20.409Z,25.85
2023-04-17T09:21:20.414Z,25.92
2023-04-17T09:22:20.402Z,25.95
2023-04-17T09:23:20.424Z,26.01
2023-04-17T09:24:20.455Z,26.07
2023-04-17T09:25:21.046Z,26.09
2023-04-17T09:26:20.499Z,26.12
2023-04-17T09:27:20.478Z,26.18
2023-04-17T09:28:20.513Z,26.24
2023-04-17T09:29:20.589Z,26.24
2023-04-17T09:30:20.569Z,26.29
2023-04-17T09:31:20.558Z,26.35
2023-04-17T09:32:20.621Z,26.35
2023-04-17T09:33:20.594Z,26.38
2023-04-17T09:34:20.603Z,26.38
2023-04-17T09:35:20.593Z,26.41
2023-04-17T09:36:22.231Z,26.43
2023-04-17T09:37:20.629Z,26.46
2023-04-17T09:38:20.628Z,26.48
2023-04-17T09:39:20.955Z,26.48
2023-04-17T09:40:20.664Z,26.51
2023-04-17T09:41:20.974Z,26.49
2023-04-17T09:42:20.705Z,26.51
2023-04-17T09:43:20.725Z,26.49
2023-04-17T09:44:20.696Z,26.42
2023-04-17T09:45:20.735Z,26.39
2023-04-17T09:46:20.790Z,26.42
2023-04-17T09:47:20.754Z,26.41
2023-04-17T09:48:20.750Z,26.45
2023-04-17T09:49:20.767Z,26.46
2023-04-17T09:50:20.835Z,26.46
2023-04-17T09:51:20.975Z,26.45
2023-04-17T09:52:20.818Z,26.55
2023-04-17T09:53:20.849Z,26.53
2023-04-17T09:54:20.916Z,26.59
2023-04-17T09:55:20.832Z,26.62
2023-04-17T09:56:20.861Z,26.69
2023-04-17T09:57:20.852Z,26.75
2023-04-17T09:58:20.858Z,26.76
2023-04-17T09:59:20.898Z,26.85
2023-04-17T10:00:20.881Z,26.89
2023-04-17T10:01:20.896Z,26.93
2023-04-17T10:02:20.992Z,26.97
2023-04-17T10:03:21.103Z,26.99
2023-04-17T10:04:21.282Z,27.04
2023-04-17T10:05:21.014Z,27.09
2023-04-17T10:06:21.483Z,27.13
2023-04-17T10:07:21.217Z,27.14
2023-04-17T10:08:21.205Z,27.17
2023-04-17T10:09:21.314Z,27.20
2023-04-17T10:10:21.311Z,27.24
2023-04-17T10:11:21.515Z,27.26
2023-04-17T10:12:21.429Z,27.31
2023-04-17T10:13:21.465Z,27.34
2023-04-17T10:14:21.617Z,27.34
2023-04-17T10:15:21.546Z,27.37
2023-04-17T10:16:21.614Z,27.41
2023-04-17T10:17:21.634Z,27.44
2023-04-17T10:18:21.712Z,27.43
2023-04-17T10:19:21.776Z,27.45
2023-04-17T10:20:21.795Z,27.50
2023-04-17T10:21:21.827Z,27.50
2023-04-17T10:22:21.868Z,27.51
2023-04-17T10:23:21.942Z,27.57
2023-04-17T10:24:22.046Z,27.57
2023-04-17T10:25:22.038Z,27.57
2023-04-17T10:26:22.139Z,27.58
2023-04-17T10:27:22.101Z,27.57
2023-04-17T10:28:22.184Z,27.61
2023-04-17T10:29:22.218Z,27.60
2023-04-17T10:30:22.659Z,27.60
2023-04-17T10:31:22.405Z,27.64
2023-04-17T10:32:22.556Z,27.65
2023-04-17T10:33:22.435Z,27.64
2023-04-17T10:34:22.493Z,27.65
2023-04-17T10:35:22.547Z,27.65
2023-04-17T10:36:22.613Z,27.66
2023-04-17T10:37:22.622Z,27.69
2023-04-17T10:38:22.666Z,27.71
2023-04-17T10:39:22.734Z,27.69
2023-04-17T10:40:22.805Z,27.74
2023-04-17T10:41:22.994Z,27.68
2023-04-17T10:42:22.890Z,27.69
2023-04-17T10:43:22.979Z,27.68
2023-04-17T10:44:22.991Z,27.69
2023-04-17T10:45:22.994Z,27.71
2023-04-17T10:46:23.082Z,27.72
2023-04-17T10:47:23.183Z,27.72
2023-04-17T10:48:23.176Z,27.74
2023-04-17T10:49:23.155Z,27.75
2023-04-17T10:50:23.235Z,27.75
2023-04-17T10:51:23.295Z,27.75
2023-04-17T10:52:23.331Z,27.77
2023-04-17T10:53:23.332Z,27.80
2023-04-17T10:54:23.385Z,27.80
2023-04-17T10:55:23.488Z,27.81
2023-04-17T10:56:23.473Z,27.81
2023-04-17T10:57:23.574Z,27.84
2023-04-17T10:58:23.574Z,27.82
2023-04-17T10:59:24.556Z,27.85
2023-04-17T11:00:23.515Z,27.85
2023-04-17T11:01:23.538Z,27.88
2023-04-17T11:02:23.537Z,27.89
2023-04-17T11:03:23.779Z,27.88
2023-04-17T11:04:23.534Z,27.88
2023-04-17T11:05:23.517Z,27.89
2023-04-17T11:06:23.463Z,27.91
2023-04-17T11:07:23.467Z,27.89
2023-04-17T11:08:23.444Z,27.89
2023-04-17T11:09:23.445Z,27.89
2023-04-17T11:10:23.435Z,27.91
2023-04-17T11:11:35.267Z,27.89
2023-04-17T11:12:24.485Z,27.91
2023-04-17T11:13:23.462Z,27.94
2023-04-17T11:14:23.524Z,27.92
2023-04-17T11:15:23.413Z,27.91
2023-04-17T11:16:23.423Z,27.91
2023-04-17T11:17:23.452Z,27.91
2023-04-17T11:18:23.416Z,27.89
2023-04-17T11:19:23.391Z,27.91
2023-04-17T11:20:23.369Z,27.89
2023-04-17T11:21:23.372Z,27.91
2023-04-17T11:22:23.420Z,27.89
2023-04-17T11:23:23.370Z,27.87
2023-04-17T11:24:23.411Z,27.89
2023-04-17T11:25:23.519Z,27.87
2023-04-17T11:26:23.493Z,27.82
2023-04-17T11:27:23.552Z,27.80
2023-04-17T11:28:23.608Z,27.77
2023-04-17T11:29:23.636Z,27.72
2023-04-17T11:30:23.696Z,27.71
2023-04-17T11:31:24.043Z,27.69
2023-04-17T11:32:23.824Z,27.65
2023-04-17T11:33:24.076Z,27.65
2023-04-17T11:34:23.878Z,27.64
2023-04-17T11:35:23.911Z,27.65
2023-04-17T11:36:24.030Z,27.62
2023-04-17T11:37:24.031Z,27.62
2023-04-17T11:38:24.113Z,27.60
2023-04-17T11:39:24.124Z,27.58
2023-04-17T11:40:24.162Z,27.60
2023-04-17T11:41:24.581Z,27.55
2023-04-17T11:42:24.279Z,27.54
2023-04-17T11:43:24.368Z,27.55
2023-04-17T11:44:24.373Z,27.54
2023-04-17T11:45:24.445Z,27.54
2023-04-17T11:46:24.552Z,27.52
2023-04-17T11:47:24.546Z,27.54
2023-04-17T11:48:24.586Z,27.52
2023-04-17T11:49:24.622Z,27.54
2023-04-17T11:50:24.645Z,27.52
2023-04-17T11:51:24.706Z,27.54
2023-04-17T11:52:24.787Z,27.51
2023-04-17T11:53:24.830Z,27.51
2023-04-17T11:54:24.836Z,27.54
2023-04-17T11:55:24.893Z,27.52
2023-04-17T11:56:24.945Z,27.52
2023-04-17T11:57:25.042Z,27.52
2023-04-17T11:58:25.090Z,27.51
2023-04-17T11:59:25.992Z,27.52
2023-04-17T12:00:25.146Z,27.52
2023-04-17T12:01:25.223Z,27.54
2023-04-17T12:02:25.411Z,27.52
2023-04-17T12:03:25.384Z,27.52
2023-04-17T12:04:25.488Z,27.51
2023-04-17T12:05:25.461Z,27.51
2023-04-17T12:06:25.427Z,27.52
2023-04-17T12:07:25.517Z,27.52
2023-04-17T12:08:25.602Z,27.52
2023-04-17T12:09:26.514Z,27.50
2023-04-17T12:10:25.614Z,27.50
2023-04-17T12:11:25.600Z,27.48
2023-04-17T12:12:25.669Z,27.51
2023-04-17T12:13:25.705Z,27.52
2023-04-17T12:14:26.520Z,27.52
2023-04-17T12:15:25.826Z,27.51
2023-04-17T12:16:25.916Z,27.52
2023-04-17T12:17:25.895Z,27.51
2023-04-17T12:18:25.946Z,27.51
2023-04-17T12:19:25.961Z,27.50
2023-04-17T12:20:26.854Z,27.51
2023-04-17T12:21:26.117Z,27.51
2023-04-17T12:22:26.178Z,27.50
2023-04-17T12:23:26.236Z,27.51
2023-04-17T12:24:26.252Z,27.50
2023-04-17T12:25:26.297Z,27.48
2023-04-17T12:26:26.378Z,27.48
2023-04-17T12:27:26.410Z,27.48
2023-04-17T12:28:26.412Z,27.48
2023-04-17T12:29:40.500Z,27.48
2023-04-17T12:30:27.484Z,27.50
2023-04-17T12:31:26.517Z,27.47
2023-04-17T12:32:26.489Z,27.50
2023-04-17T12:33:26.467Z,27.51
2023-04-17T12:34:27.769Z,27.48
2023-04-17T12:35:26.443Z,27.51
2023-04-17T12:36:26.484Z,27.48
2023-04-17T12:37:26.454Z,27.51
2023-04-17T12:38:26.420Z,27.48
2023-04-17T12:39:26.425Z,27.48
2023-04-17T12:40:26.472Z,27.50
2023-04-17T12:41:26.507Z,27.47
2023-04-17T12:42:26.794Z,27.48
2023-04-17T12:43:26.629Z,27.48
2023-04-17T12:44:26.664Z,27.50
2023-04-17T12:45:26.750Z,27.47
2023-04-17T12:46:26.756Z,27.47
2023-04-17T12:47:26.834Z,27.47
2023-04-17T12:48:26.792Z,27.47
2023-04-17T12:49:26.890Z,27.47
2023-04-17T12:50:26.929Z,27.47
2023-04-17T12:51:26.940Z,27.48
2023-04-17T12:52:27.026Z,27.45
2023-04-17T12:53:27.025Z,27.44